Time;durP1;ratioP1;P1;durP2;ratioP2;P2;SDS_P1;SDS_P2;PMS_P1;PMS_P2;Temp;Humidity;BMP_temperature;BMP_pressure;BME280_temperature;BME280_humidity;BME280_pressure;Samples;Min_cycle;Max_cycle;Signal;HPM_P1;HPM_P2
2021/12/12 00:00:54;;;;;;;7.27;6.57;;;4.20;99.90;;;;;;4934883;29;20457;-67
2021/12/12 00:03:40;;;;;;;6.57;5.87;;;4.30;99.90;;;;;;4934985;29;20946;-67
2021/12/12 00:06:20;;;;;;;6.83;5.80;;;4.30;99.90;;;;;;4934822;29;20448;-67
2021/12/12 00:08:52;;;;;;;6.20;5.60;;;4.40;99.90;;;;;;4951225;29;20922;-67
2021/12/12 00:11:21;;;;;;;6.40;5.83;;;4.30;99.90;;;;;;4953552;29;20433;-67
2021/12/12 00:14:10;;;;;;;6.10;5.50;;;4.40;99.90;;;;;;4953950;29;20437;-67
2021/12/12 00:16:36;;;;;;;5.57;5.07;;;4.40;99.90;;;;;;4940412;29;20433;-67
2021/12/12 00:19:02;;;;;;;6.27;5.30;;;4.50;99.90;;;;;;4953462;28;20887;-66
2021/12/12 00:21:30;;;;;;;6.80;6.17;;;4.50;99.90;;;;;;4953077;28;20588;-66
2021/12/12 00:23:56;;;;;;;6.97;6.30;;;4.50;99.90;;;;;;4944012;29;20471;-67
2021/12/12 00:26:22;;;;;;;6.27;5.67;;;4.50;99.90;;;;;;4953293;28;20986;-66
2021/12/12 00:28:49;;;;;;;6.47;5.80;;;4.50;99.90;;;;;;4952996;28;20463;-67
2021/12/12 00:31:17;;;;;;;9.43;5.77;;;4.50;99.90;;;;;;4953330;28;20444;-66
2021/12/12 00:33:47;;;;;;;8.33;7.33;;;4.50;99.90;;;;;;4953001;28;20693;-67
2021/12/12 00:36:17;;;;;;;7.20;6.50;;;4.60;99.90;;;;;;4952951;29;20851;-67
2021/12/12 00:38:44;;;;;;;8.23;7.47;;;4.60;99.90;;;;;;4944351;28;20452;-67
2021/12/12 00:41:13;;;;;;;6.80;6.20;;;4.60;99.90;;;;;;4953303;29;20440;-67
2021/12/12 00:43:47;;;;;;;8.23;6.57;;;4.50;99.90;;;;;;4952802;28;20440;-67
2021/12/12 00:46:14;;;;;;;7.67;6.87;;;4.50;99.90;;;;;;4952880;28;20443;-66
2021/12/12 00:48:42;;;;;;;7.17;6.47;;;4.40;99.90;;;;;;4953064;28;20456;-67
2021/12/12 00:51:12;;;;;;;7.43;6.63;;;4.30;99.90;;;;;;4952999;29;20475;-67
2021/12/12 00:53:39;;;;;;;6.00;5.50;;;4.30;99.90;;;;;;4953420;28;20424;-67
2021/12/12 00:56:05;;;;;;;7.17;6.47;;;4.40;99.90;;;;;;4956463;29;20456;-67
2021/12/12 00:58:31;;;;;;;6.53;5.90;;;4.40;99.90;;;;;;4956962;29;20499;-67
2021/12/12 01:01:09;;;;;;;6.57;5.47;;;4.40;99.90;;;;;;4956990;29;20499;-67
2021/12/12 01:03:43;;;;;;;6.90;6.20;;;4.50;99.90;;;;;;4956529;29;20428;-66
2021/12/12 01:06:09;;;;;;;6.97;6.27;;;4.50;99.90;;;;;;4943360;29;20428;-67
2021/12/12 01:08:36;;;;;;;8.07;6.50;;;4.50;99.90;;;;;;4956337;28;20456;-67
2021/12/12 01:11:06;;;;;;;7.73;6.57;;;4.50;99.90;;;;;;4956281;29;21017;-67
2021/12/12 01:13:33;;;;;;;7.97;7.17;;;4.50;99.90;;;;;;4956640;29;20432;-67
2021/12/12 01:16:07;;;;;;;10.13;8.17;;;4.40;99.90;;;;;;4956279;28;20432;-67
2021/12/12 01:18:36;;;;;;;7.63;6.40;;;4.30;99.90;;;;;;4956361;29;20514;-67
2021/12/12 01:21:34;;;;;;;8.90;8.00;;;4.20;99.90;;;;;;4956454;28;20432;-66
2021/12/12 01:24:08;;;;;;;9.43;7.50;;;4.30;99.90;;;;;;4955781;29;20534;-67
2021/12/12 01:26:34;;;;;;;7.13;6.33;;;4.30;99.90;;;;;;4956347;29;20807;-67
2021/12/12 01:29:00;;;;;;;13.43;7.87;;;4.30;99.90;;;;;;4956125;28;20456;-67
2021/12/12 01:31:32;;;;;;;8.30;6.73;;;4.30;99.90;;;;;;4956465;29;20439;-67
2021/12/12 01:34:12;;;;;;;7.20;6.50;;;4.40;99.90;;;;;;4956489;28;20987;-66
2021/12/12 01:37:05;;;;;;;7.57;6.77;;;4.40;99.90;;;;;;4955616;28;20440;-67
2021/12/12 01:39:42;;;;;;;7.50;6.37;;;4.40;99.90;;;;;;4955047;28;20467;-67
2021/12/12 01:42:10;;;;;;;7.77;6.60;;;4.40;99.90;;;;;;4956331;28;20491;-67
2021/12/12 01:44:51;;;;;;;7.87;7.00;;;4.40;99.90;;;;;;4955545;28;20447;-66
2021/12/12 01:47:31;;;;;;;6.53;5.93;;;4.30;99.90;;;;;;4954565;29;20436;-67
2021/12/12 01:50:01;;;;;;;7.83;6.97;;;4.20;99.90;;;;;;4955780;28;20814;-67
2021/12/12 01:52:29;;;;;;;7.03;6.30;;;4.20;99.90;;;;;;4955874;28;20519;-67
2021/12/12 01:55:07;;;;;;;7.73;6.43;;;4.20;99.90;;;;;;4953858;29;20790;-66
2021/12/12 01:57:36;;;;;;;8.40;7.60;;;4.20;99.90;;;;;;4955736;29;20536;-66
2021/12/12 02:00:17;;;;;;;6.37;5.73;;;4.20;99.90;;;;;;4955740;28;20961;-67
2021/12/12 02:02:42;;;;;;;7.73;6.80;;;4.30;99.90;;;;;;4955894;28;20440;-66
2021/12/12 02:05:12;;;;;;;7.40;6.60;;;4.30;99.90;;;;;;4954613;28;20495;-67
2021/12/12 02:07:42;;;;;;;7.60;5.40;;;4.20;99.90;;;;;;4955330;28;20475;-67
2021/12/12 02:10:22;;;;;;;7.10;6.33;;;4.20;99.90;;;;;;4955278;29;20467;-67
2021/12/12 02:12:48;;;;;;;6.00;5.50;;;4.20;99.90;;;;;;4955663;28;20511;-67
2021/12/12 02:15:16;;;;;;;9.40;7.60;;;4.20;99.90;;;;;;4955153;29;20429;-67
2021/12/12 02:17:46;;;;;;;6.60;6.00;;;4.20;99.90;;;;;;4955485;28;20815;-67
2021/12/12 02:20:27;;;;;;;8.00;7.20;;;4.30;99.90;;;;;;4954805;28;20447;-66
2021/12/12 02:23:20;;;;;;;7.23;6.10;;;4.30;99.90;;;;;;4955514;29;20938;-67
2021/12/12 02:36:55;;;;;;;6.43;5.83;;;4.30;99.90;;;;;;4954708;29;20435;-67
2021/12/12 02:39:21;;;;;;;5.53;5.00;;;4.20;99.90;;;;;;4954378;28;21004;-67
2021/12/12 02:41:52;;;;;;;7.87;6.23;;;4.30;99.90;;;;;;4954960;28;20428;-67
2021/12/12 02:44:22;;;;;;;9.27;7.30;;;4.20;99.90;;;;;;4954520;29;20472;-66
2021/12/12 02:46:50;;;;;;;6.60;6.10;;;4.10;99.90;;;;;;4954308;29;20487;-66
2021/12/12 02:49:36;;;;;;;8.73;5.53;;;4.20;99.90;;;;;;4954052;28;20468;-67
2021/12/12 02:52:03;;;;;;;8.60;6.17;;;4.20;99.90;;;;;;4950268;29;20467;-66
2021/12/12 02:54:29;;;;;;;10.57;6.80;;;4.10;99.90;;;;;;4954538;29;21029;-67
2021/12/12 02:56:55;;;;;;;6.37;5.43;;;4.10;99.90;;;;;;4954394;29;20436;-66
2021/12/12 02:59:23;;;;;;;14.47;6.27;;;4.00;99.90;;;;;;4954714;28;20616;-67
2021/12/12 03:01:52;;;;;;;8.03;6.30;;;4.10;99.90;;;;;;4954150;28;20436;-66
2021/12/12 03:04:18;;;;;;;8.00;6.53;;;4.10;99.90;;;;;;4954545;29;20556;-66
2021/12/12 03:06:45;;;;;;;7.60;5.97;;;4.10;99.90;;;;;;4954149;28;20480;-67
2021/12/12 03:09:19;;;;;;;8.23;6.03;;;4.00;99.90;;;;;;4954309;28;20236;-67
2021/12/12 03:11:47;;;;;;;6.13;5.53;;;4.00;99.90;;;;;;4954670;28;20863;-66
2021/12/12 03:14:13;;;;;;;7.60;5.80;;;3.90;99.90;;;;;;4954399;28;20479;-67
2021/12/12 03:16:39;;;;;;;6.37;5.77;;;3.70;99.90;;;;;;4954391;28;20433;-66
2021/12/12 03:19:07;;;;;;;6.50;5.70;;;3.60;99.90;;;;;;4954028;28;20584;-67
2021/12/12 03:21:37;;;;;;;6.07;5.47;;;3.60;99.90;;;;;;4954460;29;21034;-66
2021/12/12 03:24:08;;;;;;;6.20;5.60;;;3.40;99.90;;;;;;4954382;29;20436;-66
2021/12/12 03:26:35;;;;;;;9.73;6.10;;;3.40;99.90;;;;;;4953946;28;20514;-66
2021/12/12 03:29:02;;;;;;;6.13;5.53;;;3.30;99.90;;;;;;4953991;28;20826;-67
2021/12/12 03:31:32;;;;;;;7.13;6.00;;;3.30;99.90;;;;;;4954212;28;20440;-66
2021/12/12 03:34:00;;;;;;;7.90;5.90;;;3.20;99.90;;;;;;4953733;28;20447;-66
2021/12/12 03:36:26;;;;;;;6.77;5.97;;;3.20;99.90;;;;;;4953915;29;20432;-66
2021/12/12 03:38:56;;;;;;;6.53;5.97;;;3.10;99.90;;;;;;4954039;28;20468;-66
2021/12/12 03:41:28;;;;;;;6.90;5.50;;;3.10;99.90;;;;;;4953854;29;20790;-67
2021/12/12 03:43:57;;;;;;;7.00;5.10;;;3.10;99.90;;;;;;4953685;29;20440;-66
2021/12/12 03:46:23;;;;;;;6.20;5.60;;;3.10;99.90;;;;;;4953735;28;20451;-66
2021/12/12 03:48:49;;;;;;;5.53;5.03;;;3.10;99.90;;;;;;4953662;28;20977;-66
2021/12/12 03:51:17;;;;;;;8.07;5.10;;;3.10;99.90;;;;;;4953971;29;20185;-66
2021/12/12 03:53:42;;;;;;;6.23;5.73;;;3.20;99.90;;;;;;4954235;28;20487;-67
2021/12/12 03:56:11;;;;;;;8.60;7.00;;;3.20;99.90;;;;;;4953419;29;20428;-66
2021/12/12 03:58:36;;;;;;;5.97;5.40;;;3.20;99.90;;;;;;4953578;28;20201;-67
2021/12/12 04:01:13;;;;;;;6.20;5.60;;;3.10;99.90;;;;;;4953871;29;20491;-67
2021/12/12 04:03:41;;;;;;;6.27;5.67;;;3.00;99.90;;;;;;4953517;29;20267;-67
2021/12/12 04:06:10;;;;;;;13.23;6.07;;;2.90;99.90;;;;;;4953240;28;20446;-66
2021/12/12 04:08:40;;;;;;;7.00;5.97;;;2.90;99.90;;;;;;4954147;28;20500;-66
2021/12/12 04:11:14;;;;;;;6.30;5.30;;;2.80;99.90;;;;;;4953366;29;20555;-66
2021/12/12 04:13:41;;;;;;;7.67;6.70;;;2.80;99.90;;;;;;4953392;29;20436;-66
2021/12/12 04:16:08;;;;;;;11.80;6.47;;;2.70;99.90;;;;;;4953106;28;20432;-66
2021/12/12 04:18:33;;;;;;;8.07;6.03;;;2.60;99.90;;;;;;4953352;28;20460;-68
2021/12/12 04:20:59;;;;;;;5.77;5.27;;;2.60;99.90;;;;;;4953566;29;20531;-66
2021/12/12 04:23:29;;;;;;;7.40;5.13;;;2.50;99.90;;;;;;4953269;29;20638;-66
2021/12/12 04:26:09;;;;;;;6.23;5.10;;;2.50;99.90;;;;;;4953461;29;20189;-66
2021/12/12 04:28:35;;;;;;;5.23;4.73;;;2.50;99.90;;;;;;4943900;28;20459;-66
2021/12/12 04:31:00;;;;;;;6.40;5.80;;;2.50;99.90;;;;;;4957350;29;20472;-66
2021/12/12 04:33:26;;;;;;;7.60;5.83;;;2.40;99.90;;;;;;4957171;29;20196;-66
2021/12/12 04:35:52;;;;;;;6.53;5.13;;;2.40;99.90;;;;;;4957100;29;20232;-65
2021/12/12 04:38:17;;;;;;;7.57;5.80;;;2.40;99.90;;;;;;4956848;29;20532;-66
2021/12/12 04:40:43;;;;;;;5.70;5.20;;;2.30;99.90;;;;;;4957301;29;20185;-66
2021/12/12 04:43:08;;;;;;;5.80;5.20;;;2.20;99.90;;;;;;4956952;29;20263;-66
2021/12/12 04:46:02;;;;;;;4.83;4.33;;;2.20;99.90;;;;;;4957048;29;20185;-66
2021/12/12 04:51:42;;;;;;;6.40;5.80;;;2.10;99.90;;;;;;4954651;29;20482;-66
2021/12/12 04:54:24;;;;;;;5.80;4.63;;;2.10;99.90;;;;;;4957112;29;20442;-66
2021/12/12 04:57:17;;;;;;;5.93;5.10;;;2.10;99.90;;;;;;4956414;29;20420;-66
2021/12/12 04:59:46;;;;;;;9.03;6.20;;;2.00;99.90;;;;;;4956259;29;20539;-66
2021/12/12 05:02:34;;;;;;;6.67;5.40;;;2.10;99.90;;;;;;4956835;28;20432;-66
2021/12/12 05:05:14;;;;;;;6.33;5.10;;;2.10;99.90;;;;;;4954754;29;20867;-66
2021/12/12 05:07:51;;;;;;;5.07;4.57;;;2.00;99.90;;;;;;4956662;28;20435;-66
2021/12/12 05:10:23;;;;;;;6.60;4.80;;;2.00;99.90;;;;;;4956437;29;20554;-66
2021/12/12 05:13:01;;;;;;;6.50;4.80;;;2.00;99.90;;;;;;4956718;29;20436;-66
2021/12/12 05:15:34;;;;;;;6.17;5.60;;;1.90;99.90;;;;;;4956249;29;20445;-66
2021/12/12 05:18:15;;;;;;;6.50;4.90;;;1.90;99.90;;;;;;4956385;28;20444;-66
2021/12/12 05:20:49;;;;;;;5.60;5.00;;;1.80;99.90;;;;;;4951056;29;20436;-67
2021/12/12 05:23:19;;;;;;;7.40;4.40;;;1.80;99.90;;;;;;4956465;28;20443;-67
2021/12/12 05:26:01;;;;;;;4.57;4.07;;;1.90;99.90;;;;;;4955911;29;20451;-66
2021/12/12 05:28:32;;;;;;;5.93;4.00;;;1.80;99.90;;;;;;4956219;28;20459;-67
2021/12/12 05:31:00;;;;;;;5.70;5.03;;;1.80;99.90;;;;;;4952184;29;20460;-66
2021/12/12 05:33:29;;;;;;;5.17;4.37;;;1.70;99.90;;;;;;4954866;29;20494;-66
2021/12/12 05:35:56;;;;;;;5.50;4.80;;;1.70;99.90;;;;;;4955932;29;20466;-66
2021/12/12 05:38:23;;;;;;;6.30;5.40;;;1.70;99.90;;;;;;4955839;28;20457;-65
2021/12/12 05:40:49;;;;;;;4.93;4.20;;;1.70;99.90;;;;;;4956355;28;20814;-66
2021/12/12 05:43:15;;;;;;;6.37;5.73;;;1.60;99.90;;;;;;4956278;29;20861;-66
2021/12/12 05:45:41;;;;;;;5.57;5.07;;;1.60;99.90;;;;;;4955589;28;20451;-66
2021/12/12 05:48:09;;;;;;;6.43;4.60;;;1.60;99.90;;;;;;4955932;29;20452;-66
2021/12/12 05:50:36;;;;;;;6.07;5.10;;;1.60;99.90;;;;;;4955797;28;20577;-66
2021/12/12 05:53:03;;;;;;;6.13;5.53;;;1.60;99.90;;;;;;4956384;28;20428;-66
2021/12/12 05:55:33;;;;;;;5.00;3.93;;;1.70;99.90;;;;;;4955391;29;20964;-66
2021/12/12 05:58:00;;;;;;;6.13;5.10;;;1.70;99.90;;;;;;4955873;28;20487;-66
2021/12/12 06:00:31;;;;;;;6.93;6.33;;;1.70;99.90;;;;;;4955846;29;20495;-67
2021/12/12 06:02:57;;;;;;;8.53;5.47;;;1.70;99.90;;;;;;4955016;29;20530;-66
2021/12/12 06:05:22;;;;;;;6.60;5.53;;;1.70;99.90;;;;;;4955075;29;20544;-67
2021/12/12 06:07:50;;;;;;;6.23;4.50;;;1.70;99.90;;;;;;4955498;28;20443;-65
2021/12/12 06:10:17;;;;;;;7.87;5.70;;;1.70;99.90;;;;;;4955553;29;20584;-66
2021/12/12 06:12:44;;;;;;;8.03;5.40;;;1.70;99.90;;;;;;4955677;29;20531;-67
2021/12/12 06:15:14;;;;;;;6.23;5.03;;;1.70;99.90;;;;;;4955386;28;20435;-66
2021/12/12 06:17:41;;;;;;;7.83;5.10;;;1.70;99.90;;;;;;4955378;28;20488;-67
2021/12/12 06:20:09;;;;;;;5.40;4.90;;;1.70;99.90;;;;;;4955640;28;20444;-66
2021/12/12 06:22:36;;;;;;;6.00;4.90;;;1.70;99.90;;;;;;4954924;29;20433;-66
2021/12/12 06:25:03;;;;;;;7.03;5.43;;;1.70;99.90;;;;;;4955115;28;20443;-66
2021/12/12 06:27:29;;;;;;;6.00;4.77;;;1.70;99.90;;;;;;4955226;28;20455;-66
2021/12/12 06:29:55;;;;;;;5.80;5.20;;;1.70;99.90;;;;;;4950505;28;20457;-66
2021/12/12 06:32:21;;;;;;;5.87;4.93;;;1.70;99.90;;;;;;4952796;29;20235;-67
2021/12/12 06:34:48;;;;;;;5.77;5.17;;;1.70;99.90;;;;;;4955149;28;20837;-66
2021/12/12 06:37:16;;;;;;;4.80;4.23;;;1.60;99.90;;;;;;4955022;29;20443;-66
2021/12/12 06:39:43;;;;;;;6.97;5.60;;;1.60;99.90;;;;;;4955164;28;20492;-66
2021/12/12 06:42:12;;;;;;;6.20;5.60;;;1.60;99.90;;;;;;4954828;28;20831;-66
2021/12/12 06:44:40;;;;;;;6.80;5.70;;;1.60;99.90;;;;;;4955028;29;20515;-67
2021/12/12 06:47:08;;;;;;;7.40;5.73;;;1.50;99.90;;;;;;4954696;28;20444;-66
2021/12/12 06:49:34;;;;;;;7.00;5.90;;;1.60;99.90;;;;;;4954442;29;21058;-66
2021/12/12 06:52:02;;;;;;;8.30;5.87;;;1.60;99.90;;;;;;4954680;28;20440;-66
2021/12/12 06:54:29;;;;;;;7.87;6.10;;;1.60;99.90;;;;;;4954591;29;20511;-66
2021/12/12 06:56:58;;;;;;;9.63;6.53;;;1.60;99.90;;;;;;4954586;29;20942;-66
2021/12/12 06:59:26;;;;;;;8.17;6.40;;;1.60;99.90;;;;;;4954647;28;20491;-66
2021/12/12 07:01:52;;;;;;;9.90;7.90;;;1.60;99.90;;;;;;4954703;28;20442;-66
2021/12/12 07:04:19;;;;;;;10.53;6.63;;;1.60;99.90;;;;;;4954630;28;20850;-66
2021/12/12 07:06:46;;;;;;;9.40;7.40;;;1.60;99.90;;;;;;4954695;29;20475;-66
2021/12/12 07:09:12;;;;;;;8.83;7.93;;;1.60;99.90;;;;;;4953871;29;20479;-66
2021/12/12 07:11:41;;;;;;;14.90;8.20;;;1.70;99.90;;;;;;4954234;29;20938;-66
2021/12/12 07:14:09;;;;;;;8.67;6.57;;;1.70;99.90;;;;;;4954523;29;20173;-66
2021/12/12 07:16:35;;;;;;;8.07;6.93;;;1.60;99.90;;;;;;4954011;28;20441;-66
2021/12/12 07:19:01;;;;;;;8.40;7.13;;;1.60;99.90;;;;;;4954272;29;20546;-66
2021/12/12 07:21:27;;;;;;;7.90;6.70;;;1.60;99.90;;;;;;4954256;29;20540;-66
2021/12/12 07:23:54;;;;;;;7.20;5.77;;;1.60;99.90;;;;;;4954225;28;20527;-66
2021/12/12 07:26:27;;;;;;;11.23;8.03;;;1.50;99.90;;;;;;4953818;29;20213;-66
2021/12/12 07:28:54;;;;;;;9.83;7.10;;;1.50;99.90;;;;;;4954180;28;20448;-66
2021/12/12 07:31:24;;;;;;;7.83;6.27;;;1.60;99.90;;;;;;4954211;28;20460;-66
2021/12/12 07:33:57;;;;;;;9.03;5.70;;;1.50;99.90;;;;;;4954023;28;20798;-66
2021/12/12 07:36:24;;;;;;;10.73;7.03;;;1.50;99.90;;;;;;4953559;29;20424;-66
2021/12/12 07:38:58;;;;;;;8.37;7.00;;;1.50;99.90;;;;;;4947764;29;20460;-66
2021/12/12 07:41:28;;;;;;;8.03;5.77;;;1.50;99.90;;;;;;4953694;28;20450;-67
2021/12/12 07:43:56;;;;;;;7.40;6.57;;;1.60;99.90;;;;;;4954151;28;20507;-66
2021/12/12 07:46:22;;;;;;;8.77;6.10;;;1.80;99.90;;;;;;4953481;28;20837;-66
2021/12/12 07:48:50;;;;;;;6.70;5.70;;;2.20;99.90;;;;;;4953859;28;20456;-66
2021/12/12 07:51:17;;;;;;;6.97;6.27;;;2.80;99.90;;;;;;4953320;28;20223;-66
2021/12/12 07:53:43;;;;;;;6.40;5.33;;;3.40;99.90;;;;;;4954150;29;20440;-66
2021/12/12 07:56:09;;;;;;;7.47;5.33;;;3.80;99.90;;;;;;4953811;28;20926;-66
2021/12/12 07:58:36;;;;;;;5.63;4.30;;;4.10;99.90;;;;;;4953564;28;20448;-66
2021/12/12 08:01:03;;;;;;;4.03;3.63;;;4.40;99.90;;;;;;4953782;28;20468;-66
2021/12/12 08:03:37;;;;;;;4.47;4.00;;;4.70;99.90;;;;;;4952900;28;20444;-66
2021/12/12 08:06:05;;;;;;;6.37;4.73;;;5.20;99.90;;;;;;4953247;28;20447;-66
2021/12/12 08:08:32;;;;;;;4.10;3.63;;;5.60;99.90;;;;;;4952714;28;20470;-67
2021/12/12 08:10:58;;;;;;;4.40;4.00;;;6.10;99.90;;;;;;4948227;29;20836;-66
2021/12/12 08:13:25;;;;;;;4.63;4.23;;;6.70;99.90;;;;;;4953449;29;21016;-66
2021/12/12 08:15:50;;;;;;;4.57;3.90;;;7.50;99.90;;;;;;4953423;28;20887;-66
2021/12/12 08:18:18;;;;;;;4.80;3.97;;;8.60;99.90;;;;;;4953424;29;20543;-66
2021/12/12 08:20:46;;;;;;;2.97;2.77;;;8.90;99.90;;;;;;4952890;28;20180;-67
2021/12/12 08:23:14;;;;;;;4.53;3.80;;;8.90;99.90;;;;;;4953228;29;21025;-66
2021/12/12 08:25:43;;;;;;;3.07;2.80;;;9.00;99.90;;;;;;4953018;29;20432;-67
2021/12/12 08:28:09;;;;;;;5.80;3.67;;;7.90;99.90;;;;;;4953737;28;20466;-66
2021/12/12 08:30:36;;;;;;;4.13;3.40;;;6.60;99.90;;;;;;4953182;29;20467;-67
2021/12/12 08:33:05;;;;;;;5.73;3.47;;;5.70;99.90;;;;;;4953451;29;20173;-66
2021/12/12 08:35:32;;;;;;;3.83;3.40;;;5.10;99.90;;;;;;4952942;28;20432;-66
2021/12/12 08:37:59;;;;;;;4.77;4.07;;;4.60;99.90;;;;;;4953373;28;20457;-66
2021/12/12 08:40:30;;;;;;;3.50;3.20;;;4.30;99.90;;;;;;4952839;29;20468;-67
2021/12/12 08:42:56;;;;;;;3.00;2.77;;;4.00;99.90;;;;;;4953277;29;20444;-67
2021/12/12 08:45:27;;;;;;;6.03;3.17;;;3.90;99.90;;;;;;4952873;28;20962;-66
2021/12/12 08:47:54;;;;;;;3.27;2.97;;;3.70;99.90;;;;;;4953238;28;20798;-66
2021/12/12 08:50:24;;;;;;;3.33;3.03;;;3.50;99.90;;;;;;4952404;28;20457;-66
2021/12/12 08:52:52;;;;;;;4.07;3.57;;;3.40;99.90;;;;;;4953310;29;20439;-65
2021/12/12 08:55:30;;;;;;;3.70;3.40;;;3.40;99.90;;;;;;4952743;29;20432;-66
2021/12/12 08:58:14;;;;;;;4.10;3.70;;;3.40;99.90;;;;;;4953095;28;20512;-66
2021/12/12 09:00:48;;;;;;;4.37;3.40;;;3.50;99.90;;;;;;4953014;29;20551;-66
2021/12/12 09:03:18;;;;;;;5.57;3.80;;;3.60;99.90;;;;;;4953206;29;20866;-66
2021/12/12 09:05:45;;;;;;;3.17;2.87;;;3.80;99.90;;;;;;4952669;29;20792;-66
2021/12/12 09:08:16;;;;;;;3.77;3.30;;;3.90;99.90;;;;;;4952963;29;20523;-65
2021/12/12 09:10:51;;;;;;;4.30;3.90;;;3.80;99.90;;;;;;4952792;28;20457;-66
2021/12/12 09:13:25;;;;;;;4.30;3.57;;;3.80;99.90;;;;;;4953102;28;20487;-66
2021/12/12 09:16:11;;;;;;;3.73;3.10;;;4.00;99.90;;;;;;4954415;28;20440;-66
2021/12/12 09:18:59;;;;;;;4.90;3.00;;;3.90;99.90;;;;;;4956317;28;20452;-67
2021/12/12 09:21:51;;;;;;;3.43;2.73;;;4.00;99.90;;;;;;4956209;29;20789;-66
2021/12/12 09:24:45;;;;;;;6.93;4.93;;;4.20;99.90;;;;;;4956601;28;20519;-66
2021/12/12 09:27:18;;;;;;;5.70;4.13;;;4.40;99.90;;;;;;4956406;29;20511;-66
2021/12/12 09:29:52;;;;;;;4.13;3.33;;;4.30;99.90;;;;;;4955685;28;20476;-67
2021/12/12 09:32:26;;;;;;;4.23;3.63;;;4.10;99.90;;;;;;4956118;28;20428;-66
2021/12/12 09:35:10;;;;;;;3.57;3.20;;;3.90;99.90;;;;;;4956195;28;20506;-66
2021/12/12 09:37:44;;;;;;;3.70;3.40;;;4.00;99.90;;;;;;4956442;29;20432;-67
2021/12/12 09:40:54;;;;;;;2.57;2.37;;;4.30;99.90;;;;;;4956013;28;20436;-66
2021/12/12 09:43:57;;;;;;;3.03;2.27;;;4.50;99.90;;;;;;4945819;29;20523;-66
2021/12/12 09:46:40;;;;;;;2.70;2.50;;;5.00;99.90;;;;;;4944385;29;20439;-66
2021/12/12 09:53:03;;;;;;;3.07;2.80;;;5.90;99.90;;;;;;4941575;28;20532;-66
2021/12/12 09:55:44;;;;;;;3.97;3.57;;;6.10;99.90;;;;;;4938878;28;20433;-66
2021/12/12 09:58:34;;;;;;;2.93;2.60;;;6.40;99.90;;;;;;4942577;29;20484;-66
2021/12/12 10:01:12;;;;;;;2.83;2.60;;;7.10;99.90;;;;;;4955740;29;20519;-67
2021/12/12 10:04:02;;;;;;;2.80;2.60;;;7.20;99.90;;;;;;4952801;29;20432;-67
2021/12/12 10:06:33;;;;;;;2.90;2.17;;;7.40;99.90;;;;;;4955556;29;20432;-67
2021/12/12 10:09:30;;;;;;;2.73;2.33;;;7.30;99.90;;;;;;4969596;23;20548;-63
2021/12/12 10:12:19;;;;;;;2.50;2.30;;;7.60;99.90;;;;;;4928943;29;20445;-65
2021/12/12 10:14:48;;;;;;;2.47;2.27;;;7.30;99.90;;;;;;4936026;29;20813;-65
2021/12/12 10:17:28;;;;;;;2.77;2.43;;;6.70;99.90;;;;;;4936114;29;20430;-65
2021/12/12 10:20:22;;;;;;;3.67;3.30;;;6.50;99.90;;;;;;4936294;29;21024;-65
2021/12/12 10:23:33;;;;;;;3.40;2.63;;;6.30;99.90;;;;;;4936884;29;20441;-65
2021/12/12 10:26:11;;;;;;;2.60;2.40;;;6.50;99.90;;;;;;4934748;29;20520;-65
2021/12/12 10:28:51;;;;;;;4.57;2.80;;;6.70;99.90;;;;;;4935954;29;20453;-65
2021/12/12 10:31:27;;;;;;;6.27;2.10;;;6.50;99.90;;;;;;4935611;29;20520;-65
2021/12/12 10:33:56;;;;;;;3.27;2.97;;;6.20;99.90;;;;;;4936024;29;20438;-65
2021/12/12 10:36:35;;;;;;;3.37;3.07;;;6.40;99.90;;;;;;4935660;29;20845;-65
2021/12/12 10:39:09;;;;;;;2.10;1.90;;;6.30;99.90;;;;;;4936148;29;20453;-65
2021/12/12 10:41:45;;;;;;;3.27;2.33;;;6.30;99.90;;;;;;4935461;29;20428;-65
2021/12/12 10:44:16;;;;;;;3.20;2.90;;;6.20;99.90;;;;;;4935824;29;20515;-65
2021/12/12 10:47:15;;;;;;;2.13;2.00;;;5.90;99.90;;;;;;4935148;29;20426;-65
2021/12/12 10:50:02;;;;;;;4.00;2.33;;;5.80;99.90;;;;;;4926296;29;20551;-64
2021/12/12 10:52:57;;;;;;;2.40;2.20;;;5.70;99.90;;;;;;4935660;29;20452;-65
2021/12/12 10:55:26;;;;;;;4.03;3.07;;;5.90;99.90;;;;;;4935087;29;20434;-64
2021/12/12 10:58:17;;;;;;;2.80;2.30;;;6.20;99.90;;;;;;4935285;29;20440;-64
2021/12/12 11:00:48;;;;;;;2.43;1.70;;;6.50;99.90;;;;;;4935534;29;20438;-65
2021/12/12 11:03:26;;;;;;;2.47;2.10;;;6.70;99.90;;;;;;4935453;29;20477;-64
2021/12/12 11:05:59;;;;;;;3.00;2.13;;;7.00;99.90;;;;;;4934925;29;20437;-65
2021/12/12 11:08:37;;;;;;;3.63;2.33;;;7.10;99.90;;;;;;4935109;29;20465;-65
2021/12/12 11:11:16;;;;;;;3.40;2.80;;;7.00;99.90;;;;;;4930311;29;20560;-64
2021/12/12 11:14:06;;;;;;;1.53;1.43;;;7.30;99.90;;;;;;4935069;29;20437;-65
2021/12/12 11:16:39;;;;;;;2.90;2.47;;;7.50;99.90;;;;;;4934751;29;20457;-64
2021/12/12 11:19:26;;;;;;;2.37;2.17;;;8.00;99.90;;;;;;4934861;29;20458;-64
2021/12/12 11:22:08;;;;;;;3.37;2.20;;;8.50;99.90;;;;;;4935120;29;20854;-65
2021/12/12 11:24:42;;;;;;;2.20;2.00;;;8.30;99.90;;;;;;4933952;29;20429;-64
2021/12/12 11:27:16;;;;;;;3.10;2.63;;;7.80;99.90;;;;;;4934404;29;20433;-64
2021/12/12 11:29:48;;;;;;;2.77;2.57;;;7.30;99.90;;;;;;4934029;29;20476;-64
2021/12/12 11:32:21;;;;;;;5.03;2.37;;;7.20;99.90;;;;;;4935285;29;20512;-65
2021/12/12 11:34:50;;;;;;;2.90;2.33;;;7.20;99.90;;;;;;4934806;29;20951;-65
2021/12/12 11:37:35;;;;;;;2.60;2.30;;;7.10;99.90;;;;;;4934818;29;20808;-64
2021/12/12 11:40:13;;;;;;;2.33;2.13;;;7.20;99.90;;;;;;4930196;29;20473;-65
2021/12/12 11:42:41;;;;;;;3.93;2.53;;;6.80;99.90;;;;;;4935069;29;20440;-63
2021/12/12 11:45:22;;;;;;;5.67;2.13;;;6.90;99.90;;;;;;4934467;29;20441;-64
2021/12/12 11:48:12;;;;;;;3.07;2.70;;;6.90;99.90;;;;;;4934713;29;20888;-65
2021/12/12 11:51:09;;;;;;;2.27;2.07;;;6.60;99.90;;;;;;4934615;29;20493;-65
2021/12/12 11:53:53;;;;;;;2.13;1.93;;;6.50;99.90;;;;;;4934645;29;20529;-64
2021/12/12 11:56:21;;;;;;;3.23;2.07;;;6.40;99.90;;;;;;4934783;29;20543;-64
2021/12/12 11:58:56;;;;;;;5.23;3.07;;;6.50;99.90;;;;;;4934577;29;20560;-65
2021/12/12 12:01:38;;;;;;;3.10;2.57;;;6.60;99.90;;;;;;4934578;29;20579;-66
2021/12/12 12:04:35;;;;;;;4.77;2.73;;;6.50;99.90;;;;;;4929536;29;20551;-66
2021/12/12 12:07:34;;;;;;;4.30;2.40;;;6.70;99.90;;;;;;4923860;29;20866;-66
2021/12/12 12:10:06;;;;;;;2.20;1.73;;;7.00;99.90;;;;;;4920978;29;20469;-67
2021/12/12 12:12:31;;;;;;;2.40;2.17;;;7.00;99.90;;;;;;4934383;29;20437;-66
2021/12/12 12:15:29;;;;;;;12.40;2.83;;;7.00;99.90;;;;;;4934281;29;20489;-66
2021/12/12 12:18:02;;;;;;;4.60;2.60;;;7.50;99.90;;;;;;4934615;29;20217;-67
2021/12/12 12:20:50;;;;;;;3.87;2.47;;;7.90;99.90;;;;;;4933951;29;20501;-66
2021/12/12 12:23:47;;;;;;;4.00;3.07;;;8.00;99.90;;;;;;4928018;29;20444;-67
2021/12/12 12:29:30;;;;;;;2.73;2.37;;;7.60;99.90;;;;;;4934380;29;20475;-66
2021/12/12 12:32:33;;;;;;;2.30;2.10;;;7.30;99.90;;;;;;4882357;29;20443;-66
2021/12/12 12:35:37;;;;;;;2.57;2.37;;;7.40;99.90;;;;;;4924697;29;20952;-65
2021/12/12 12:38:54;;;;;;;4.03;2.33;;;7.30;99.90;;;;;;4933572;29;20451;-66
2021/12/12 12:41:57;;;;;;;3.50;2.13;;;7.50;99.90;;;;;;4934161;29;20934;-67
2021/12/12 12:44:44;;;;;;;5.20;4.70;;;7.40;99.90;;;;;;4930139;29;20468;-66
2021/12/12 12:47:35;;;;;;;5.90;2.60;;;7.20;99.90;;;;;;4933782;29;20521;-66
2021/12/12 12:50:31;;;;;;;7.23;4.40;;;7.00;99.90;;;;;;4934020;29;20469;-66
2021/12/12 12:53:15;;;;;;;4.10;3.00;;;6.80;99.90;;;;;;4938034;29;20421;-67
2021/12/12 12:56:06;;;;;;;5.40;3.47;;;6.70;99.90;;;;;;4937500;29;20436;-66
2021/12/12 12:58:38;;;;;;;5.30;4.07;;;6.70;99.90;;;;;;4937700;29;20453;-66
2021/12/12 13:01:18;;;;;;;4.70;3.40;;;6.70;99.90;;;;;;4937607;29;20444;-66
2021/12/12 13:04:02;;;;;;;2.67;1.90;;;6.90;99.90;;;;;;4937757;29;20436;-66
2021/12/12 13:06:55;;;;;;;3.40;2.33;;;6.90;99.90;;;;;;4937113;29;20472;-64
2021/12/12 13:09:27;;;;;;;2.60;2.40;;;6.90;99.90;;;;;;4942121;29;20465;-66
2021/12/12 13:12:20;;;;;;;3.03;2.73;;;6.80;99.90;;;;;;4937368;29;20444;-66
2021/12/12 13:15:23;;;;;;;2.77;2.57;;;6.80;99.90;;;;;;4936851;29;20905;-66
2021/12/12 13:18:15;;;;;;;6.60;3.60;;;6.90;99.90;;;;;;4937130;29;20432;-66
2021/12/12 13:20:46;;;;;;;3.60;2.60;;;6.90;99.90;;;;;;4937196;29;20935;-66
2021/12/12 13:23:34;;;;;;;2.27;2.10;;;6.90;99.90;;;;;;4937465;29;20508;-67
2021/12/12 13:26:09;;;;;;;2.40;2.10;;;7.00;99.90;;;;;;4936815;29;20433;-66
2021/12/12 13:29:16;;;;;;;5.23;2.37;;;7.00;99.90;;;;;;4951811;29;20475;-66
2021/12/12 13:32:07;;;;;;;3.13;2.43;;;6.80;99.90;;;;;;4937334;29;20453;-66
2021/12/12 13:34:46;;;;;;;3.87;2.53;;;6.60;99.90;;;;;;4936917;29;20437;-66
2021/12/12 13:37:20;;;;;;;9.10;2.80;;;6.50;99.90;;;;;;4936978;29;20462;-66
2021/12/12 13:40:27;;;;;;;3.27;2.67;;;6.60;99.90;;;;;;4936224;29;20467;-67
2021/12/12 13:43:11;;;;;;;2.77;2.20;;;6.60;99.90;;;;;;4915485;29;20449;-67
2021/12/12 13:46:02;;;;;;;6.20;2.70;;;6.50;99.90;;;;;;4936393;29;20809;-65
2021/12/12 13:48:54;;;;;;;3.40;2.20;;;6.50;99.90;;;;;;4936962;29;20963;-66
2021/12/12 13:51:33;;;;;;;4.13;3.17;;;6.50;99.90;;;;;;4935805;29;20465;-65
2021/12/12 13:54:05;;;;;;;2.40;2.20;;;6.50;99.90;;;;;;4923050;29;20437;-66
2021/12/12 13:57:10;;;;;;;2.60;2.40;;;6.40;99.90;;;;;;4935915;29;20441;-66